sensor_id;sensor_type;location;lat;lon;timestamp;P1;durP1;ratioP1;P2;durP2;ratioP2
75087;SDS011;63664;44.868;40.600;2023-04-03T00:01:06;11.30;;;6.55;;
75087;SDS011;63664;44.868;40.600;2023-04-03T00:03:35;12.73;;;6.45;;
75087;SDS011;63664;44.868;40.600;2023-04-03T00:06:02;14.27;;;6.65;;
75087;SDS011;63664;44.868;40.600;2023-04-03T00:08:34;12.10;;;6.85;;
75087;SDS011;63664;44.868;40.600;2023-04-03T00:11:01;10.38;;;6.65;;
75087;SDS011;63664;44.868;40.600;2023-04-03T00:13:30;14.95;;;7.57;;
75087;SDS011;63664;44.868;40.600;2023-04-03T00:16:00;14.70;;;6.38;;
75087;SDS011;63664;44.868;40.600;2023-04-03T00:18:29;10.20;;;6.47;;
75087;SDS011;63664;44.868;40.600;2023-04-03T00:20:55;12.15;;;6.57;;
75087;SDS011;63664;44.868;40.600;2023-04-03T00:23:25;17.42;;;8.13;;
75087;SDS011;63664;44.868;40.600;2023-04-03T00:25:51;12.88;;;6.65;;
75087;SDS011;63664;44.868;40.600;2023-04-03T00:28:18;17.13;;;7.45;;
75087;SDS011;63664;44.868;40.600;2023-04-03T00:30:48;17.05;;;7.38;;
75087;SDS011;63664;44.868;40.600;2023-04-03T00:33:15;13.43;;;7.43;;
75087;SDS011;63664;44.868;40.600;2023-04-03T00:35:44;18.58;;;7.80;;
75087;SDS011;63664;44.868;40.600;2023-04-03T00:38:11;15.02;;;7.88;;
75087;SDS011;63664;44.868;40.600;2023-04-03T00:40:38;14.40;;;7.45;;
75087;SDS011;63664;44.868;40.600;2023-04-03T00:43:11;15.07;;;7.63;;
75087;SDS011;63664;44.868;40.600;2023-04-03T00:45:44;14.18;;;6.97;;
75087;SDS011;63664;44.868;40.600;2023-04-03T00:48:22;17.70;;;7.95;;
75087;SDS011;63664;44.868;40.600;2023-04-03T00:51:02;14.60;;;7.55;;
75087;SDS011;63664;44.868;40.600;2023-04-03T00:53:37;18.30;;;8.68;;
75087;SDS011;63664;44.868;40.600;2023-04-03T00:56:08;13.27;;;7.47;;
75087;SDS011;63664;44.868;40.600;2023-04-03T00:58:39;17.83;;;7.82;;
75087;SDS011;63664;44.868;40.600;2023-04-03T01:01:18;15.40;;;7.70;;
75087;SDS011;63664;44.868;40.600;2023-04-03T01:03:50;15.27;;;7.20;;
75087;SDS011;63664;44.868;40.600;2023-04-03T01:06:24;15.38;;;7.60;;
75087;SDS011;63664;44.868;40.600;2023-04-03T01:08:59;18.02;;;7.88;;
75087;SDS011;63664;44.868;40.600;2023-04-03T01:11:30;18.63;;;8.95;;
75087;SDS011;63664;44.868;40.600;2023-04-03T01:16:28;19.77;;;8.85;;
75087;SDS011;63664;44.868;40.600;2023-04-03T01:18:58;21.40;;;9.30;;
75087;SDS011;63664;44.868;40.600;2023-04-03T01:21:36;15.38;;;7.90;;
75087;SDS011;63664;44.868;40.600;2023-04-03T01:27:07;17.60;;;7.70;;
75087;SDS011;63664;44.868;40.600;2023-04-03T01:29:38;18.50;;;9.80;;
75087;SDS011;63664;44.868;40.600;2023-04-03T01:32:05;21.85;;;9.80;;
75087;SDS011;63664;44.868;40.600;2023-04-03T01:34:32;22.10;;;10.73;;
75087;SDS011;63664;44.868;40.600;2023-04-03T01:36:59;26.52;;;11.80;;
75087;SDS011;63664;44.868;40.600;2023-04-03T01:39:28;17.98;;;9.50;;
75087;SDS011;63664;44.868;40.600;2023-04-03T01:41:55;16.88;;;9.07;;
75087;SDS011;63664;44.868;40.600;2023-04-03T01:44:30;21.02;;;9.77;;
75087;SDS011;63664;44.868;40.600;2023-04-03T01:46:56;21.27;;;9.75;;
75087;SDS011;63664;44.868;40.600;2023-04-03T01:49:27;15.10;;;9.00;;
75087;SDS011;63664;44.868;40.600;2023-04-03T01:51:57;20.95;;;10.50;;
75087;SDS011;63664;44.868;40.600;2023-04-03T01:54:23;20.08;;;9.30;;
75087;SDS011;63664;44.868;40.600;2023-04-03T01:56:50;23.15;;;10.18;;
75087;SDS011;63664;44.868;40.600;2023-04-03T01:59:18;21.00;;;10.25;;
75087;SDS011;63664;44.868;40.600;2023-04-03T02:01:45;21.00;;;9.23;;
75087;SDS011;63664;44.868;40.600;2023-04-03T02:04:13;16.27;;;8.75;;
75087;SDS011;63664;44.868;40.600;2023-04-03T02:06:40;19.85;;;10.15;;
75087;SDS011;63664;44.868;40.600;2023-04-03T02:09:09;19.85;;;9.95;;
75087;SDS011;63664;44.868;40.600;2023-04-03T02:11:35;18.48;;;9.70;;
75087;SDS011;63664;44.868;40.600;2023-04-03T02:14:04;18.83;;;9.05;;
75087;SDS011;63664;44.868;40.600;2023-04-03T02:16:30;22.45;;;9.40;;
75087;SDS011;63664;44.868;40.600;2023-04-03T02:18:59;19.17;;;9.02;;
75087;SDS011;63664;44.868;40.600;2023-04-03T02:21:30;19.67;;;9.18;;
75087;SDS011;63664;44.868;40.600;2023-04-03T02:23:56;18.75;;;9.48;;
75087;SDS011;63664;44.868;40.600;2023-04-03T02:26:22;18.05;;;8.60;;
75087;SDS011;63664;44.868;40.600;2023-04-03T02:28:51;16.50;;;8.40;;
75087;SDS011;63664;44.868;40.600;2023-04-03T02:31:18;14.27;;;8.00;;
75087;SDS011;63664;44.868;40.600;2023-04-03T02:33:47;16.90;;;8.18;;
75087;SDS011;63664;44.868;40.600;2023-04-03T02:36:15;18.23;;;7.75;;
75087;SDS011;63664;44.868;40.600;2023-04-03T02:38:46;16.70;;;8.60;;
75087;SDS011;63664;44.868;40.600;2023-04-03T02:41:12;15.02;;;7.22;;
75087;SDS011;63664;44.868;40.600;2023-04-03T02:43:39;20.23;;;8.00;;
75087;SDS011;63664;44.868;40.600;2023-04-03T02:46:08;19.48;;;8.45;;
75087;SDS011;63664;44.868;40.600;2023-04-03T02:48:37;18.75;;;7.50;;
75087;SDS011;63664;44.868;40.600;2023-04-03T02:51:04;16.02;;;7.53;;
75087;SDS011;63664;44.868;40.600;2023-04-03T02:53:33;16.90;;;7.93;;
75087;SDS011;63664;44.868;40.600;2023-04-03T02:56:06;17.95;;;7.32;;
75087;SDS011;63664;44.868;40.600;2023-04-03T02:58:33;14.07;;;6.82;;
75087;SDS011;63664;44.868;40.600;2023-04-03T03:01:03;14.73;;;6.95;;
75087;SDS011;63664;44.868;40.600;2023-04-03T03:03:30;13.40;;;6.97;;
75087;SDS011;63664;44.868;40.600;2023-04-03T03:08:36;12.52;;;6.70;;
75087;SDS011;63664;44.868;40.600;2023-04-03T03:11:05;15.27;;;6.03;;
75087;SDS011;63664;44.868;40.600;2023-04-03T03:13:32;15.30;;;6.57;;
75087;SDS011;63664;44.868;40.600;2023-04-03T03:15:58;17.38;;;6.57;;
75087;SDS011;63664;44.868;40.600;2023-04-03T03:18:25;15.07;;;6.32;;
75087;SDS011;63664;44.868;40.600;2023-04-03T03:20:55;13.00;;;6.78;;
75087;SDS011;63664;44.868;40.600;2023-04-03T03:23:26;11.55;;;6.45;;
75087;SDS011;63664;44.868;40.600;2023-04-03T03:25:57;12.77;;;5.68;;
75087;SDS011;63664;44.868;40.600;2023-04-03T03:28:28;13.52;;;6.70;;
75087;SDS011;63664;44.868;40.600;2023-04-03T03:30:55;15.07;;;6.45;;
75087;SDS011;63664;44.868;40.600;2023-04-03T03:33:23;20.20;;;6.03;;
75087;SDS011;63664;44.868;40.600;2023-04-03T03:35:52;11.90;;;6.13;;
75087;SDS011;63664;44.868;40.600;2023-04-03T03:38:24;13.57;;;6.15;;
75087;SDS011;63664;44.868;40.600;2023-04-03T03:40:52;13.73;;;5.82;;
75087;SDS011;63664;44.868;40.600;2023-04-03T03:43:22;14.75;;;6.53;;
75087;SDS011;63664;44.868;40.600;2023-04-03T03:45:51;11.32;;;5.43;;
75087;SDS011;63664;44.868;40.600;2023-04-03T03:48:18;14.43;;;6.30;;
75087;SDS011;63664;44.868;40.600;2023-04-03T03:50:45;11.55;;;5.88;;
75087;SDS011;63664;44.868;40.600;2023-04-03T03:53:12;11.23;;;5.25;;
75087;SDS011;63664;44.868;40.600;2023-04-03T03:55:42;11.13;;;5.18;;
75087;SDS011;63664;44.868;40.600;2023-04-03T03:58:09;14.20;;;5.95;;
75087;SDS011;63664;44.868;40.600;2023-04-03T04:00:38;11.88;;;5.25;;
75087;SDS011;63664;44.868;40.600;2023-04-03T04:03:05;12.23;;;5.43;;
75087;SDS011;63664;44.868;40.600;2023-04-03T04:05:34;12.10;;;5.72;;
75087;SDS011;63664;44.868;40.600;2023-04-03T04:08:00;14.77;;;5.68;;
75087;SDS011;63664;44.868;40.600;2023-04-03T04:10:32;14.57;;;5.35;;
75087;SDS011;63664;44.868;40.600;2023-04-03T04:13:00;13.02;;;6.22;;
75087;SDS011;63664;44.868;40.600;2023-04-03T04:15:28;18.80;;;6.50;;
75087;SDS011;63664;44.868;40.600;2023-04-03T04:17:55;12.55;;;5.88;;
75087;SDS011;63664;44.868;40.600;2023-04-03T04:20:24;28.40;;;8.20;;
75087;SDS011;63664;44.868;40.600;2023-04-03T04:22:54;25.45;;;8.32;;
75087;SDS011;63664;44.868;40.600;2023-04-03T04:25:22;16.83;;;7.50;;
75087;SDS011;63664;44.868;40.600;2023-04-03T04:27:48;18.67;;;7.32;;
75087;SDS011;63664;44.868;40.600;2023-04-03T04:30:17;35.00;;;8.90;;
75087;SDS011;63664;44.868;40.600;2023-04-03T04:32:47;17.63;;;8.43;;
75087;SDS011;63664;44.868;40.600;2023-04-03T04:35:17;31.35;;;9.38;;
75087;SDS011;63664;44.868;40.600;2023-04-03T04:37:46;42.28;;;11.18;;
75087;SDS011;63664;44.868;40.600;2023-04-03T04:40:15;50.97;;;11.73;;
75087;SDS011;63664;44.868;40.600;2023-04-03T04:42:44;21.50;;;11.45;;
75087;SDS011;63664;44.868;40.600;2023-04-03T04:45:11;38.28;;;11.82;;
75087;SDS011;63664;44.868;40.600;2023-04-03T04:47:39;33.30;;;11.43;;
75087;SDS011;63664;44.868;40.600;2023-04-03T04:50:09;34.78;;;12.40;;
75087;SDS011;63664;44.868;40.600;2023-04-03T04:52:42;26.92;;;10.70;;
75087;SDS011;63664;44.868;40.600;2023-04-03T04:55:08;19.10;;;11.13;;
75087;SDS011;63664;44.868;40.600;2023-04-03T04:57:35;29.40;;;11.77;;
75087;SDS011;63664;44.868;40.600;2023-04-03T05:00:03;35.15;;;11.77;;
75087;SDS011;63664;44.868;40.600;2023-04-03T05:02:30;63.25;;;12.38;;
75087;SDS011;63664;44.868;40.600;2023-04-03T05:05:01;24.23;;;9.90;;
75087;SDS011;63664;44.868;40.600;2023-04-03T05:07:29;17.02;;;11.27;;
75087;SDS011;63664;44.868;40.600;2023-04-03T05:09:57;23.90;;;11.45;;
75087;SDS011;63664;44.868;40.600;2023-04-03T05:12:23;23.92;;;11.18;;
75087;SDS011;63664;44.868;40.600;2023-04-03T05:14:55;18.33;;;10.32;;
75087;SDS011;63664;44.868;40.600;2023-04-03T05:17:23;22.35;;;9.88;;
75087;SDS011;63664;44.868;40.600;2023-04-03T05:19:52;25.77;;;10.43;;
75087;SDS011;63664;44.868;40.600;2023-04-03T05:22:21;22.65;;;10.75;;
75087;SDS011;63664;44.868;40.600;2023-04-03T05:24:49;22.95;;;9.77;;
75087;SDS011;63664;44.868;40.600;2023-04-03T05:27:19;23.27;;;9.70;;
75087;SDS011;63664;44.868;40.600;2023-04-03T05:29:52;18.80;;;9.43;;
75087;SDS011;63664;44.868;40.600;2023-04-03T05:32:23;21.95;;;8.73;;
75087;SDS011;63664;44.868;40.600;2023-04-03T05:35:08;36.65;;;8.70;;
75087;SDS011;63664;44.868;40.600;2023-04-03T05:37:35;19.60;;;8.50;;
75087;SDS011;63664;44.868;40.600;2023-04-03T05:40:02;27.90;;;10.02;;
75087;SDS011;63664;44.868;40.600;2023-04-03T05:42:32;17.15;;;8.50;;
75087;SDS011;63664;44.868;40.600;2023-04-03T05:44:59;15.95;;;8.35;;
75087;SDS011;63664;44.868;40.600;2023-04-03T05:47:25;14.88;;;7.80;;
75087;SDS011;63664;44.868;40.600;2023-04-03T05:49:54;20.45;;;7.90;;
75087;SDS011;63664;44.868;40.600;2023-04-03T05:52:29;20.05;;;8.18;;
75087;SDS011;63664;44.868;40.600;2023-04-03T05:55:01;16.52;;;8.70;;
75087;SDS011;63664;44.868;40.600;2023-04-03T05:57:30;23.23;;;9.13;;
75087;SDS011;63664;44.868;40.600;2023-04-03T05:59:56;20.83;;;9.95;;
75087;SDS011;63664;44.868;40.600;2023-04-03T06:02:27;20.95;;;9.05;;
75087;SDS011;63664;44.868;40.600;2023-04-03T06:04:53;23.92;;;9.50;;
75087;SDS011;63664;44.868;40.600;2023-04-03T06:07:21;19.10;;;9.65;;
75087;SDS011;63664;44.868;40.600;2023-04-03T06:09:49;24.95;;;8.43;;
75087;SDS011;63664;44.868;40.600;2023-04-03T06:12:16;16.92;;;6.97;;
75087;SDS011;63664;44.868;40.600;2023-04-03T06:14:43;16.10;;;7.97;;
75087;SDS011;63664;44.868;40.600;2023-04-03T06:17:16;15.23;;;7.10;;
75087;SDS011;63664;44.868;40.600;2023-04-03T06:19:44;15.65;;;6.45;;
75087;SDS011;63664;44.868;40.600;2023-04-03T06:22:11;13.73;;;6.28;;
75087;SDS011;63664;44.868;40.600;2023-04-03T06:24:41;12.73;;;6.85;;
75087;SDS011;63664;44.868;40.600;2023-04-03T06:27:09;14.02;;;5.82;;
75087;SDS011;63664;44.868;40.600;2023-04-03T06:29:38;10.70;;;6.22;;
75087;SDS011;63664;44.868;40.600;2023-04-03T06:32:07;15.02;;;7.70;;
75087;SDS011;63664;44.868;40.600;2023-04-03T06:34:36;19.70;;;8.73;;
75087;SDS011;63664;44.868;40.600;2023-04-03T06:37:02;14.63;;;7.28;;
75087;SDS011;63664;44.868;40.600;2023-04-03T06:39:32;9.90;;;5.65;;
75087;SDS011;63664;44.868;40.600;2023-04-03T06:41:58;9.82;;;4.82;;
75087;SDS011;63664;44.868;40.600;2023-04-03T06:44:35;13.10;;;4.78;;
75087;SDS011;63664;44.868;40.600;2023-04-03T06:47:01;11.13;;;4.68;;
75087;SDS011;63664;44.868;40.600;2023-04-03T06:49:28;7.50;;;4.15;;
75087;SDS011;63664;44.868;40.600;2023-04-03T06:51:55;21.05;;;4.57;;
75087;SDS011;63664;44.868;40.600;2023-04-03T06:54:22;12.45;;;4.13;;
75087;SDS011;63664;44.868;40.600;2023-04-03T06:56:49;10.68;;;3.92;;
75087;SDS011;63664;44.868;40.600;2023-04-03T06:59:18;12.85;;;4.07;;
75087;SDS011;63664;44.868;40.600;2023-04-03T07:04:13;4.45;;;2.40;;
75087;SDS011;63664;44.868;40.600;2023-04-03T07:06:40;8.30;;;3.25;;
75087;SDS011;63664;44.868;40.600;2023-04-03T07:09:08;6.90;;;3.13;;
75087;SDS011;63664;44.868;40.600;2023-04-03T07:11:36;13.50;;;3.40;;
75087;SDS011;63664;44.868;40.600;2023-04-03T07:14:05;10.00;;;3.45;;
75087;SDS011;63664;44.868;40.600;2023-04-03T07:16:35;5.32;;;2.88;;
75087;SDS011;63664;44.868;40.600;2023-04-03T07:19:02;5.47;;;3.30;;
75087;SDS011;63664;44.868;40.600;2023-04-03T07:21:29;7.20;;;2.80;;
75087;SDS011;63664;44.868;40.600;2023-04-03T07:23:56;15.65;;;3.63;;
75087;SDS011;63664;44.868;40.600;2023-04-03T07:26:22;8.68;;;3.13;;
75087;SDS011;63664;44.868;40.600;2023-04-03T07:28:49;5.60;;;2.75;;
75087;SDS011;63664;44.868;40.600;2023-04-03T07:31:16;3.97;;;2.58;;
75087;SDS011;63664;44.868;40.600;2023-04-03T07:33:43;8.75;;;2.10;;
75087;SDS011;63664;44.868;40.600;2023-04-03T07:36:14;5.75;;;2.05;;
75087;SDS011;63664;44.868;40.600;2023-04-03T07:38:43;29.52;;;2.97;;
75087;SDS011;63664;44.868;40.600;2023-04-03T07:41:17;11.30;;;2.70;;
75087;SDS011;63664;44.868;40.600;2023-04-03T07:43:48;5.32;;;1.90;;
75087;SDS011;63664;44.868;40.600;2023-04-03T07:46:15;6.63;;;2.53;;
75087;SDS011;63664;44.868;40.600;2023-04-03T07:48:44;8.65;;;2.53;;
75087;SDS011;63664;44.868;40.600;2023-04-03T07:51:10;6.38;;;2.38;;
75087;SDS011;63664;44.868;40.600;2023-04-03T07:53:36;3.00;;;1.83;;
75087;SDS011;63664;44.868;40.600;2023-04-03T07:56:03;3.40;;;1.80;;
75087;SDS011;63664;44.868;40.600;2023-04-03T07:58:31;4.10;;;1.88;;
75087;SDS011;63664;44.868;40.600;2023-04-03T08:01:00;4.35;;;2.05;;
75087;SDS011;63664;44.868;40.600;2023-04-03T08:03:27;2.20;;;1.40;;
75087;SDS011;63664;44.868;40.600;2023-04-03T08:05:53;3.95;;;1.90;;
75087;SDS011;63664;44.868;40.600;2023-04-03T08:08:21;3.83;;;1.83;;
75087;SDS011;63664;44.868;40.600;2023-04-03T08:10:49;3.55;;;2.38;;
75087;SDS011;63664;44.868;40.600;2023-04-03T08:13:20;3.75;;;1.77;;
75087;SDS011;63664;44.868;40.600;2023-04-03T08:15:47;6.57;;;1.33;;
75087;SDS011;63664;44.868;40.600;2023-04-03T08:18:18;3.88;;;1.73;;
75087;SDS011;63664;44.868;40.600;2023-04-03T08:20:50;1.70;;;1.20;;
75087;SDS011;63664;44.868;40.600;2023-04-03T08:23:17;1.70;;;1.08;;
75087;SDS011;63664;44.868;40.600;2023-04-03T08:25:46;2.13;;;1.40;;
75087;SDS011;63664;44.868;40.600;2023-04-03T08:28:13;2.88;;;1.30;;
75087;SDS011;63664;44.868;40.600;2023-04-03T08:30:42;3.03;;;1.48;;
75087;SDS011;63664;44.868;40.600;2023-04-03T08:33:09;5.47;;;1.73;;
75087;SDS011;63664;44.868;40.600;2023-04-03T08:35:41;4.88;;;1.80;;
75087;SDS011;63664;44.868;40.600;2023-04-03T08:38:08;10.30;;;1.20;;
75087;SDS011;63664;44.868;40.600;2023-04-03T08:40:35;41.38;;;2.85;;
75087;SDS011;63664;44.868;40.600;2023-04-03T08:50:55;6.30;;;1.52;;
75087;SDS011;63664;44.868;40.600;2023-04-03T08:53:30;1.85;;;1.25;;
75087;SDS011;63664;44.868;40.600;2023-04-03T08:56:07;2.38;;;1.30;;
75087;SDS011;63664;44.868;40.600;2023-04-03T08:58:56;7.40;;;3.13;;
75087;SDS011;63664;44.868;40.600;2023-04-03T09:01:36;5.28;;;3.88;;
75087;SDS011;63664;44.868;40.600;2023-04-03T09:04:10;5.43;;;2.22;;
75087;SDS011;63664;44.868;40.600;2023-04-03T09:06:55;3.58;;;2.13;;
75087;SDS011;63664;44.868;40.600;2023-04-03T09:12:49;4.20;;;2.47;;
75087;SDS011;63664;44.868;40.600;2023-04-03T09:21:14;10.35;;;7.53;;
75087;SDS011;63664;44.868;40.600;2023-04-03T09:23:54;16.08;;;10.48;;
75087;SDS011;63664;44.868;40.600;2023-04-03T09:26:34;8.45;;;7.22;;
75087;SDS011;63664;44.868;40.600;2023-04-03T09:29:07;9.00;;;5.45;;
75087;SDS011;63664;44.868;40.600;2023-04-03T09:31:39;3.78;;;3.00;;
75087;SDS011;63664;44.868;40.600;2023-04-03T09:34:25;2.75;;;1.95;;
75087;SDS011;63664;44.868;40.600;2023-04-03T09:36:57;1.80;;;1.20;;
75087;SDS011;63664;44.868;40.600;2023-04-03T09:42:16;1.55;;;1.27;;
75087;SDS011;63664;44.868;40.600;2023-04-03T09:44:56;2.45;;;1.60;;
75087;SDS011;63664;44.868;40.600;2023-04-03T09:47:28;3.30;;;1.80;;
75087;SDS011;63664;44.868;40.600;2023-04-03T09:52:44;3.45;;;1.60;;
75087;SDS011;63664;44.868;40.600;2023-04-03T09:55:15;1.83;;;1.25;;
75087;SDS011;63664;44.868;40.600;2023-04-03T09:57:57;2.33;;;1.50;;
75087;SDS011;63664;44.868;40.600;2023-04-03T10:00:35;2.67;;;1.38;;
75087;SDS011;63664;44.868;40.600;2023-04-03T10:03:04;2.47;;;1.13;;
75087;SDS011;63664;44.868;40.600;2023-04-03T10:05:54;2.03;;;1.38;;
75087;SDS011;63664;44.868;40.600;2023-04-03T10:08:27;2.17;;;1.27;;
75087;SDS011;63664;44.868;40.600;2023-04-03T10:13:57;1.75;;;1.00;;
75087;SDS011;63664;44.868;40.600;2023-04-03T10:16:39;2.53;;;1.02;;
75087;SDS011;63664;44.868;40.600;2023-04-03T10:19:13;2.40;;;1.42;;
75087;SDS011;63664;44.868;40.600;2023-04-03T10:24:39;2.17;;;1.20;;
75087;SDS011;63664;44.868;40.600;2023-04-03T10:43:38;1.70;;;1.00;;
75087;SDS011;63664;44.868;40.600;2023-04-03T10:46:16;2.35;;;1.30;;
75087;SDS011;63664;44.868;40.600;2023-04-03T10:51:39;1.80;;;1.17;;
75087;SDS011;63664;44.868;40.600;2023-04-03T10:54:20;2.35;;;1.13;;
75087;SDS011;63664;44.868;40.600;2023-04-03T10:57:05;2.63;;;1.38;;
75087;SDS011;63664;44.868;40.600;2023-04-03T11:02:23;2.05;;;1.40;;
75087;SDS011;63664;44.868;40.600;2023-04-03T11:05:02;2.65;;;1.38;;
75087;SDS011;63664;44.868;40.600;2023-04-03T11:07:40;2.65;;;1.70;;
75087;SDS011;63664;44.868;40.600;2023-04-03T11:10:17;3.67;;;1.80;;
75087;SDS011;63664;44.868;40.600;2023-04-03T11:12:56;3.70;;;1.45;;
75087;SDS011;63664;44.868;40.600;2023-04-03T11:15:49;2.15;;;1.42;;
75087;SDS011;63664;44.868;40.600;2023-04-03T11:18:22;3.97;;;1.77;;
75087;SDS011;63664;44.868;40.600;2023-04-03T11:21:19;2.88;;;2.00;;
75087;SDS011;63664;44.868;40.600;2023-04-03T11:23:56;4.63;;;1.63;;
75087;SDS011;63664;44.868;40.600;2023-04-03T11:26:26;3.97;;;1.65;;
75087;SDS011;63664;44.868;40.600;2023-04-03T11:28:57;3.35;;;2.08;;
75087;SDS011;63664;44.868;40.600;2023-04-03T11:31:30;3.38;;;1.90;;
75087;SDS011;63664;44.868;40.600;2023-04-03T11:36:55;4.90;;;1.70;;
75087;SDS011;63664;44.868;40.600;2023-04-03T11:39:29;4.20;;;2.05;;
75087;SDS011;63664;44.868;40.600;2023-04-03T11:45:45;3.58;;;1.70;;
75087;SDS011;63664;44.868;40.600;2023-04-03T11:47:53;5.10;;;1.70;;
75087;SDS011;63664;44.868;40.600;2023-04-03T11:50:31;2.83;;;1.60;;
75087;SDS011;63664;44.868;40.600;2023-04-03T11:55:46;4.32;;;1.70;;
75087;SDS011;63664;44.868;40.600;2023-04-03T11:58:31;3.78;;;2.15;;
75087;SDS011;63664;44.868;40.600;2023-04-03T12:01:00;2.95;;;2.10;;
75087;SDS011;63664;44.868;40.600;2023-04-03T12:03:32;3.75;;;1.95;;
75087;SDS011;63664;44.868;40.600;2023-04-03T12:17:50;4.18;;;2.25;;
75087;SDS011;63664;44.868;40.600;2023-04-03T12:20:59;2.55;;;1.92;;
75087;SDS011;63664;44.868;40.600;2023-04-03T12:26:03;4.78;;;2.00;;
75087;SDS011;63664;44.868;40.600;2023-04-03T12:28:48;2.58;;;1.67;;
75087;SDS011;63664;44.868;40.600;2023-04-03T12:31:18;3.95;;;2.10;;
75087;SDS011;63664;44.868;40.600;2023-04-03T12:39:19;4.45;;;2.20;;
75087;SDS011;63664;44.868;40.600;2023-04-03T12:49:49;3.60;;;1.70;;
75087;SDS011;63664;44.868;40.600;2023-04-03T12:55:14;3.47;;;1.77;;
75087;SDS011;63664;44.868;40.600;2023-04-03T12:57:50;2.42;;;1.60;;
75087;SDS011;63664;44.868;40.600;2023-04-03T13:00:27;2.50;;;1.70;;
75087;SDS011;63664;44.868;40.600;2023-04-03T13:03:05;3.50;;;1.80;;
75087;SDS011;63664;44.868;40.600;2023-04-03T13:05:48;6.18;;;2.00;;
75087;SDS011;63664;44.868;40.600;2023-04-03T13:08:14;2.40;;;1.58;;
75087;SDS011;63664;44.868;40.600;2023-04-03T13:13:21;2.67;;;1.60;;
75087;SDS011;63664;44.868;40.600;2023-04-03T13:15:48;2.88;;;1.77;;
75087;SDS011;63664;44.868;40.600;2023-04-03T13:18:23;2.97;;;1.67;;
75087;SDS011;63664;44.868;40.600;2023-04-03T13:20:59;3.72;;;2.22;;
75087;SDS011;63664;44.868;40.600;2023-04-03T13:23:31;3.88;;;1.75;;
75087;SDS011;63664;44.868;40.600;2023-04-03T13:26:00;6.22;;;1.90;;
75087;SDS011;63664;44.868;40.600;2023-04-03T13:28:29;3.97;;;1.50;;
75087;SDS011;63664;44.868;40.600;2023-04-03T13:33:26;2.33;;;1.92;;
75087;SDS011;63664;44.868;40.600;2023-04-03T13:36:02;2.10;;;1.42;;
75087;SDS011;63664;44.868;40.600;2023-04-03T13:38:33;6.75;;;2.03;;
75087;SDS011;63664;44.868;40.600;2023-04-03T13:41:21;4.07;;;2.30;;
75087;SDS011;63664;44.868;40.600;2023-04-03T13:43:56;4.80;;;2.20;;
75087;SDS011;63664;44.868;40.600;2023-04-03T13:46:41;3.70;;;2.80;;
75087;SDS011;63664;44.868;40.600;2023-04-03T13:49:28;5.03;;;2.20;;
75087;SDS011;63664;44.868;40.600;2023-04-03T13:51:58;6.28;;;2.13;;
75087;SDS011;63664;44.868;40.600;2023-04-03T13:54:37;4.15;;;2.55;;
75087;SDS011;63664;44.868;40.600;2023-04-03T13:57:11;4.18;;;2.20;;
75087;SDS011;63664;44.868;40.600;2023-04-03T13:59:42;3.97;;;2.20;;
75087;SDS011;63664;44.868;40.600;2023-04-03T14:02:15;5.18;;;2.75;;
75087;SDS011;63664;44.868;40.600;2023-04-03T14:04:48;6.55;;;4.10;;
75087;SDS011;63664;44.868;40.600;2023-04-03T14:07:22;5.55;;;2.78;;
75087;SDS011;63664;44.868;40.600;2023-04-03T14:09:49;7.07;;;3.00;;
75087;SDS011;63664;44.868;40.600;2023-04-03T14:14:57;7.88;;;3.17;;
75087;SDS011;63664;44.868;40.600;2023-04-03T14:17:30;7.78;;;4.00;;
75087;SDS011;63664;44.868;40.600;2023-04-03T14:19:57;9.30;;;3.50;;
75087;SDS011;63664;44.868;40.600;2023-04-03T14:22:28;8.95;;;3.65;;
75087;SDS011;63664;44.868;40.600;2023-04-03T14:24:56;8.27;;;3.75;;
75087;SDS011;63664;44.868;40.600;2023-04-03T14:27:28;5.35;;;3.25;;
75087;SDS011;63664;44.868;40.600;2023-04-03T14:30:00;6.80;;;3.75;;
75087;SDS011;63664;44.868;40.600;2023-04-03T14:32:29;10.98;;;5.57;;
75087;SDS011;63664;44.868;40.600;2023-04-03T14:34:56;8.43;;;4.30;;
75087;SDS011;63664;44.868;40.600;2023-04-03T14:39:55;7.95;;;3.47;;
75087;SDS011;63664;44.868;40.600;2023-04-03T14:42:25;19.92;;;5.82;;
75087;SDS011;63664;44.868;40.600;2023-04-03T14:44:54;12.93;;;4.32;;
75087;SDS011;63664;44.868;40.600;2023-04-03T14:47:21;8.43;;;4.15;;
75087;SDS011;63664;44.868;40.600;2023-04-03T14:49:57;10.18;;;4.38;;
75087;SDS011;63664;44.868;40.600;2023-04-03T14:52:28;9.73;;;4.93;;
75087;SDS011;63664;44.868;40.600;2023-04-03T14:55:05;6.40;;;4.13;;
75087;SDS011;63664;44.868;40.600;2023-04-03T14:57:33;6.05;;;2.47;;
75087;SDS011;63664;44.868;40.600;2023-04-03T15:00:02;8.05;;;3.35;;
75087;SDS011;63664;44.868;40.600;2023-04-03T15:02:34;4.75;;;2.83;;
75087;SDS011;63664;44.868;40.600;2023-04-03T15:05:03;4.00;;;2.53;;
75087;SDS011;63664;44.868;40.600;2023-04-03T15:10:02;3.03;;;2.10;;
75087;SDS011;63664;44.868;40.600;2023-04-03T15:12:43;5.80;;;2.38;;
75087;SDS011;63664;44.868;40.600;2023-04-03T15:15:17;3.75;;;2.10;;
75087;SDS011;63664;44.868;40.600;2023-04-03T15:17:52;5.70;;;3.50;;
75087;SDS011;63664;44.868;40.600;2023-04-03T15:20:22;6.82;;;4.53;;
75087;SDS011;63664;44.868;40.600;2023-04-03T15:22:56;11.98;;;5.50;;
75087;SDS011;63664;44.868;40.600;2023-04-03T15:25:26;7.20;;;4.63;;
75087;SDS011;63664;44.868;40.600;2023-04-03T15:27:53;19.58;;;9.05;;
75087;SDS011;63664;44.868;40.600;2023-04-03T15:30:21;16.70;;;8.85;;
75087;SDS011;63664;44.868;40.600;2023-04-03T15:32:50;13.23;;;7.95;;
75087;SDS011;63664;44.868;40.600;2023-04-03T15:35:16;12.82;;;7.85;;
75087;SDS011;63664;44.868;40.600;2023-04-03T15:37:43;9.35;;;5.15;;
75087;SDS011;63664;44.868;40.600;2023-04-03T15:40:09;6.30;;;3.53;;
75087;SDS011;63664;44.868;40.600;2023-04-03T15:42:39;4.45;;;2.25;;
75087;SDS011;63664;44.868;40.600;2023-04-03T15:45:09;4.70;;;2.10;;
75087;SDS011;63664;44.868;40.600;2023-04-03T15:50:02;13.70;;;3.58;;
75087;SDS011;63664;44.868;40.600;2023-04-03T15:52:35;18.40;;;5.60;;
75087;SDS011;63664;44.868;40.600;2023-04-03T15:55:02;23.00;;;7.03;;
75087;SDS011;63664;44.868;40.600;2023-04-03T15:57:28;35.67;;;9.52;;
75087;SDS011;63664;44.868;40.600;2023-04-03T15:59:57;37.67;;;7.43;;
75087;SDS011;63664;44.868;40.600;2023-04-03T16:02:33;31.85;;;9.43;;
75087;SDS011;63664;44.868;40.600;2023-04-03T16:05:00;25.95;;;6.75;;
75087;SDS011;63664;44.868;40.600;2023-04-03T16:07:28;19.30;;;5.10;;
75087;SDS011;63664;44.868;40.600;2023-04-03T16:09:55;30.67;;;7.70;;
75087;SDS011;63664;44.868;40.600;2023-04-03T16:12:24;83.03;;;17.52;;
75087;SDS011;63664;44.868;40.600;2023-04-03T16:14:50;100.68;;;19.35;;
75087;SDS011;63664;44.868;40.600;2023-04-03T16:17:17;65.32;;;12.23;;
75087;SDS011;63664;44.868;40.600;2023-04-03T16:19:46;30.35;;;6.78;;
75087;SDS011;63664;44.868;40.600;2023-04-03T16:22:12;20.30;;;4.35;;
75087;SDS011;63664;44.868;40.600;2023-04-03T16:24:41;7.25;;;2.88;;
75087;SDS011;63664;44.868;40.600;2023-04-03T16:27:12;12.45;;;4.03;;
75087;SDS011;63664;44.868;40.600;2023-04-03T16:29:38;31.92;;;7.07;;
75087;SDS011;63664;44.868;40.600;2023-04-03T16:32:07;42.17;;;9.68;;
75087;SDS011;63664;44.868;40.600;2023-04-03T16:34:34;26.73;;;8.20;;
75087;SDS011;63664;44.868;40.600;2023-04-03T16:37:01;25.48;;;7.18;;
75087;SDS011;63664;44.868;40.600;2023-04-03T16:39:27;22.50;;;6.78;;
75087;SDS011;63664;44.868;40.600;2023-04-03T16:41:55;27.75;;;6.63;;